Clyde Hill, Washington
Current Conditions -  °F | °C
As of 2:53 AM on Saturday 25 Oct 2014 (Local Time) from KBFI Reporting Station
Scattered Clouds Scattered Clouds  
Wind Chill: 53°   Ceiling: Unl
Heat Index: 53°   Visibility: 10mi
Dew Point: 48°   Wind: 5mph
Humidity: 83%   Direction: 330°NNW
Pressure: 29.62"   Gusts: NA
Location:  47.6186°N, 122.204°W
Report Text: KBFI 250953Z 33004KT 10SM SCT095 12/09 A2962 RMK AO2 SLP031 T01170089
Loading
Personal Weather Stations






























Interactive Weather Map
Tropical Storm Tracking
New forecast layout! Learn more

10-Day Weather Forecast

Advertisements
Track Severe Weather on mobile